sensor_id;sensor_type;location;lat;lon;timestamp;temperature;humidity
66401;HTU21D;53211;45.040;38.788;2022-07-29T00:00:08;21.70;118.99
66401;HTU21D;53211;45.040;38.788;2022-07-29T00:02:34;21.69;118.99
66401;HTU21D;53211;45.040;38.788;2022-07-29T00:05:00;21.69;118.99
66401;HTU21D;53211;45.040;38.788;2022-07-29T00:07:26;21.70;118.99
66401;HTU21D;53211;45.040;38.788;2022-07-29T00:09:52;21.70;118.99
66401;HTU21D;53211;45.040;38.788;2022-07-29T00:12:21;21.68;116.21
66401;HTU21D;53211;45.040;38.788;2022-07-29T00:14:47;21.65;115.44
66401;HTU21D;53211;45.040;38.788;2022-07-29T00:17:13;21.60;115.87
66401;HTU21D;53211;45.040;38.788;2022-07-29T00:19:39;21.58;114.80
66401;HTU21D;53211;45.040;38.788;2022-07-29T00:22:05;21.55;114.50
66401;HTU21D;53211;45.040;38.788;2022-07-29T00:24:31;21.51;113.70
66401;HTU21D;53211;45.040;38.788;2022-07-29T00:26:56;21.47;112.89
66401;HTU21D;53211;45.040;38.788;2022-07-29T00:29:22;21.40;112.28
66401;HTU21D;53211;45.040;38.788;2022-07-29T00:31:48;21.34;112.19
66401;HTU21D;53211;45.040;38.788;2022-07-29T00:34:14;21.28;111.74
66401;HTU21D;53211;45.040;38.788;2022-07-29T00:36:58;21.21;111.58
66401;HTU21D;53211;45.040;38.788;2022-07-29T00:39:24;21.14;112.28
66401;HTU21D;53211;45.040;38.788;2022-07-29T00:41:49;21.09;113.19
66401;HTU21D;53211;45.040;38.788;2022-07-29T00:44:15;21.06;114.66
66401;HTU21D;53211;45.040;38.788;2022-07-29T00:46:41;21.03;112.87
66401;HTU21D;53211;45.040;38.788;2022-07-29T00:49:07;20.96;118.99
66401;HTU21D;53211;45.040;38.788;2022-07-29T00:51:36;20.94;113.69
66401;HTU21D;53211;45.040;38.788;2022-07-29T00:54:03;20.89;112.80
66401;HTU21D;53211;45.040;38.788;2022-07-29T00:56:31;20.86;111.92
66401;HTU21D;53211;45.040;38.788;2022-07-29T00:58:58;20.83;111.61
66401;HTU21D;53211;45.040;38.788;2022-07-29T01:01:24;20.78;111.23
66401;HTU21D;53211;45.040;38.788;2022-07-29T01:03:50;20.74;111.13
66401;HTU21D;53211;45.040;38.788;2022-07-29T01:06:16;20.73;111.32
66401;HTU21D;53211;45.040;38.788;2022-07-29T01:08:42;20.71;111.34
66401;HTU21D;53211;45.040;38.788;2022-07-29T01:11:08;20.66;116.64
66401;HTU21D;53211;45.040;38.788;2022-07-29T01:13:34;20.65;118.44
66401;HTU21D;53211;45.040;38.788;2022-07-29T01:16:04;20.64;118.99
66401;HTU21D;53211;45.040;38.788;2022-07-29T01:18:34;20.66;118.99
66401;HTU21D;53211;45.040;38.788;2022-07-29T01:21:08;20.69;118.40
66401;HTU21D;53211;45.040;38.788;2022-07-29T01:26:47;20.69;118.18
66401;HTU21D;53211;45.040;38.788;2022-07-29T01:34:09;20.68;118.99
66401;HTU21D;53211;45.040;38.788;2022-07-29T01:36:37;20.68;118.99
66401;HTU21D;53211;45.040;38.788;2022-07-29T01:39:10;20.66;118.99
66401;HTU21D;53211;45.040;38.788;2022-07-29T01:41:56;20.66;118.99
66401;HTU21D;53211;45.040;38.788;2022-07-29T01:44:25;20.65;118.99
66401;HTU21D;53211;45.040;38.788;2022-07-29T01:46:54;20.65;118.99
66401;HTU21D;53211;45.040;38.788;2022-07-29T01:49:22;20.64;118.99
66401;HTU21D;53211;45.040;38.788;2022-07-29T01:51:53;20.64;118.99
66401;HTU21D;53211;45.040;38.788;2022-07-29T01:54:29;20.64;118.99
66401;HTU21D;53211;45.040;38.788;2022-07-29T01:56:56;20.63;118.99
66401;HTU21D;53211;45.040;38.788;2022-07-29T01:59:24;20.61;118.99
66401;HTU21D;53211;45.040;38.788;2022-07-29T02:01:52;20.60;118.99
66401;HTU21D;53211;45.040;38.788;2022-07-29T02:04:19;20.59;118.99
66401;HTU21D;53211;45.040;38.788;2022-07-29T02:06:45;20.59;118.99
66401;HTU21D;53211;45.040;38.788;2022-07-29T02:09:13;20.57;118.99
66401;HTU21D;53211;45.040;38.788;2022-07-29T02:11:40;20.57;118.99
66401;HTU21D;53211;45.040;38.788;2022-07-29T02:14:10;20.55;118.82
66401;HTU21D;53211;45.040;38.788;2022-07-29T02:16:37;20.51;117.82
66401;HTU21D;53211;45.040;38.788;2022-07-29T02:19:05;20.49;117.45
66401;HTU21D;53211;45.040;38.788;2022-07-29T02:21:32;20.46;116.75
66401;HTU21D;53211;45.040;38.788;2022-07-29T02:23:59;20.44;116.63
66401;HTU21D;53211;45.040;38.788;2022-07-29T02:26:26;20.43;115.97
66401;HTU21D;53211;45.040;38.788;2022-07-29T02:28:54;20.40;115.58
66401;HTU21D;53211;45.040;38.788;2022-07-29T02:31:21;20.36;114.98
66401;HTU21D;53211;45.040;38.788;2022-07-29T02:33:48;20.36;114.83
66401;HTU21D;53211;45.040;38.788;2022-07-29T02:36:14;20.34;115.15
66401;HTU21D;53211;45.040;38.788;2022-07-29T02:38:42;20.35;115.09
66401;HTU21D;53211;45.040;38.788;2022-07-29T02:41:22;20.39;114.07
66401;HTU21D;53211;45.040;38.788;2022-07-29T02:43:50;20.40;118.90
66401;HTU21D;53211;45.040;38.788;2022-07-29T02:46:24;20.41;117.50
66401;HTU21D;53211;45.040;38.788;2022-07-29T02:48:55;20.45;118.99
66401;HTU21D;53211;45.040;38.788;2022-07-29T02:51:33;20.47;116.06
66401;HTU21D;53211;45.040;38.788;2022-07-29T02:53:59;20.53;115.26
66401;HTU21D;53211;45.040;38.788;2022-07-29T02:56:27;20.56;118.99
66401;HTU21D;53211;45.040;38.788;2022-07-29T02:58:54;20.59;118.99
66401;HTU21D;53211;45.040;38.788;2022-07-29T03:01:25;20.61;118.99
66401;HTU21D;53211;45.040;38.788;2022-07-29T03:03:54;20.65;118.99
66401;HTU21D;53211;45.040;38.788;2022-07-29T03:06:21;20.66;118.99
66401;HTU21D;53211;45.040;38.788;2022-07-29T03:08:47;20.70;118.99
66401;HTU21D;53211;45.040;38.788;2022-07-29T03:11:13;20.76;118.99
66401;HTU21D;53211;45.040;38.788;2022-07-29T03:16:24;20.89;118.99
66401;HTU21D;53211;45.040;38.788;2022-07-29T03:18:50;20.91;118.99
66401;HTU21D;53211;45.040;38.788;2022-07-29T03:21:16;20.95;118.99
66401;HTU21D;53211;45.040;38.788;2022-07-29T03:23:45;21.02;118.99
66401;HTU21D;53211;45.040;38.788;2022-07-29T03:26:11;21.06;118.99
66401;HTU21D;53211;45.040;38.788;2022-07-29T03:28:37;21.10;118.99
66401;HTU21D;53211;45.040;38.788;2022-07-29T03:31:03;21.18;118.99
66401;HTU21D;53211;45.040;38.788;2022-07-29T03:33:29;21.24;118.99
66401;HTU21D;53211;45.040;38.788;2022-07-29T03:35:55;21.30;118.99
66401;HTU21D;53211;45.040;38.788;2022-07-29T03:38:23;21.37;118.99
66401;HTU21D;53211;45.040;38.788;2022-07-29T03:40:54;21.43;118.99
66401;HTU21D;53211;45.040;38.788;2022-07-29T03:43:21;21.49;118.99
66401;HTU21D;53211;45.040;38.788;2022-07-29T03:45:51;21.59;118.99
66401;HTU21D;53211;45.040;38.788;2022-07-29T03:48:19;21.64;118.99
66401;HTU21D;53211;45.040;38.788;2022-07-29T03:50:46;21.72;118.99
66401;HTU21D;53211;45.040;38.788;2022-07-29T03:53:12;21.80;118.99
66401;HTU21D;53211;45.040;38.788;2022-07-29T03:55:41;21.87;118.99
66401;HTU21D;53211;45.040;38.788;2022-07-29T03:58:08;21.96;118.99
66401;HTU21D;53211;45.040;38.788;2022-07-29T04:00:36;22.07;118.99
66401;HTU21D;53211;45.040;38.788;2022-07-29T04:03:03;22.16;118.99
66401;HTU21D;53211;45.040;38.788;2022-07-29T04:05:29;22.26;118.99
66401;HTU21D;53211;45.040;38.788;2022-07-29T04:07:55;22.34;118.99
66401;HTU21D;53211;45.040;38.788;2022-07-29T04:10:21;22.43;118.99
66401;HTU21D;53211;45.040;38.788;2022-07-29T04:12:48;22.51;118.99
66401;HTU21D;53211;45.040;38.788;2022-07-29T04:15:14;22.61;118.99
66401;HTU21D;53211;45.040;38.788;2022-07-29T04:17:40;22.71;118.99
66401;HTU21D;53211;45.040;38.788;2022-07-29T04:20:06;22.77;118.99
66401;HTU21D;53211;45.040;38.788;2022-07-29T04:22:32;22.85;118.99
66401;HTU21D;53211;45.040;38.788;2022-07-29T04:24:58;22.96;118.99
66401;HTU21D;53211;45.040;38.788;2022-07-29T04:27:24;23.03;118.99
66401;HTU21D;53211;45.040;38.788;2022-07-29T04:29:50;23.14;118.99
66401;HTU21D;53211;45.040;38.788;2022-07-29T04:32:16;23.20;118.99
66401;HTU21D;53211;45.040;38.788;2022-07-29T04:34:42;23.26;118.99
66401;HTU21D;53211;45.040;38.788;2022-07-29T04:37:08;23.35;118.99
66401;HTU21D;53211;45.040;38.788;2022-07-29T04:39:34;23.38;118.99
66401;HTU21D;53211;45.040;38.788;2022-07-29T04:41:59;23.43;118.99
66401;HTU21D;53211;45.040;38.788;2022-07-29T04:44:25;23.49;118.99
66401;HTU21D;53211;45.040;38.788;2022-07-29T04:46:52;23.51;118.99
66401;HTU21D;53211;45.040;38.788;2022-07-29T04:49:17;23.57;118.99
66401;HTU21D;53211;45.040;38.788;2022-07-29T04:51:43;23.61;118.99
66401;HTU21D;53211;45.040;38.788;2022-07-29T04:54:09;23.69;118.99
66401;HTU21D;53211;45.040;38.788;2022-07-29T04:56:35;23.72;118.99
66401;HTU21D;53211;45.040;38.788;2022-07-29T04:59:01;23.77;118.99
66401;HTU21D;53211;45.040;38.788;2022-07-29T05:01:26;23.84;118.99
66401;HTU21D;53211;45.040;38.788;2022-07-29T05:03:52;23.87;118.99
66401;HTU21D;53211;45.040;38.788;2022-07-29T05:06:18;23.96;118.99
66401;HTU21D;53211;45.040;38.788;2022-07-29T05:08:44;24.02;118.99
66401;HTU21D;53211;45.040;38.788;2022-07-29T05:11:09;24.10;118.99
66401;HTU21D;53211;45.040;38.788;2022-07-29T05:13:35;24.18;118.99
66401;HTU21D;53211;45.040;38.788;2022-07-29T05:16:01;24.25;118.99
66401;HTU21D;53211;45.040;38.788;2022-07-29T05:18:27;24.33;118.99
66401;HTU21D;53211;45.040;38.788;2022-07-29T05:20:53;24.41;118.99
66401;HTU21D;53211;45.040;38.788;2022-07-29T05:23:19;24.51;118.99
66401;HTU21D;53211;45.040;38.788;2022-07-29T05:25:45;24.57;118.99
66401;HTU21D;53211;45.040;38.788;2022-07-29T05:28:11;24.68;118.99
66401;HTU21D;53211;45.040;38.788;2022-07-29T05:30:37;24.76;118.99
66401;HTU21D;53211;45.040;38.788;2022-07-29T05:33:03;24.87;118.99
66401;HTU21D;53211;45.040;38.788;2022-07-29T05:35:29;24.92;118.99
66401;HTU21D;53211;45.040;38.788;2022-07-29T05:37:55;24.99;118.99
66401;HTU21D;53211;45.040;38.788;2022-07-29T05:40:20;25.08;118.78
66401;HTU21D;53211;45.040;38.788;2022-07-29T05:42:46;25.17;118.99
66401;HTU21D;53211;45.040;38.788;2022-07-29T05:45:12;25.27;118.99
66401;HTU21D;53211;45.040;38.788;2022-07-29T05:47:38;25.30;118.99
66401;HTU21D;53211;45.040;38.788;2022-07-29T05:50:04;25.37;118.08
66401;HTU21D;53211;45.040;38.788;2022-07-29T05:52:30;25.44;117.47
66401;HTU21D;53211;45.040;38.788;2022-07-29T05:54:56;25.49;118.85
66401;HTU21D;53211;45.040;38.788;2022-07-29T05:57:22;25.58;117.49
66401;HTU21D;53211;45.040;38.788;2022-07-29T05:59:49;25.66;116.86
66401;HTU21D;53211;45.040;38.788;2022-07-29T06:02:15;25.74;116.49
66401;HTU21D;53211;45.040;38.788;2022-07-29T06:04:40;25.82;116.12
66401;HTU21D;53211;45.040;38.788;2022-07-29T06:07:06;25.88;114.45
66401;HTU21D;53211;45.040;38.788;2022-07-29T06:09:33;25.96;115.86
66401;HTU21D;53211;45.040;38.788;2022-07-29T06:11:59;26.04;115.27
66401;HTU21D;53211;45.040;38.788;2022-07-29T06:14:24;26.13;114.93
66401;HTU21D;53211;45.040;38.788;2022-07-29T06:16:51;26.22;114.83
66401;HTU21D;53211;45.040;38.788;2022-07-29T06:19:16;26.32;115.19
66401;HTU21D;53211;45.040;38.788;2022-07-29T06:21:42;26.41;113.97
66401;HTU21D;53211;45.040;38.788;2022-07-29T06:24:10;26.50;113.87
66401;HTU21D;53211;45.040;38.788;2022-07-29T06:26:36;26.58;113.38
66401;HTU21D;53211;45.040;38.788;2022-07-29T06:29:01;26.67;113.15
66401;HTU21D;53211;45.040;38.788;2022-07-29T06:31:27;26.76;112.97
66401;HTU21D;53211;45.040;38.788;2022-07-29T06:33:53;26.86;112.59
66401;HTU21D;53211;45.040;38.788;2022-07-29T06:36:19;26.94;112.02
66401;HTU21D;53211;45.040;38.788;2022-07-29T06:38:45;27.00;111.70
66401;HTU21D;53211;45.040;38.788;2022-07-29T06:41:10;27.06;111.49
66401;HTU21D;53211;45.040;38.788;2022-07-29T06:43:38;27.13;111.31
66401;HTU21D;53211;45.040;38.788;2022-07-29T06:46:07;27.21;111.02
66401;HTU21D;53211;45.040;38.788;2022-07-29T06:48:34;27.29;110.83
66401;HTU21D;53211;45.040;38.788;2022-07-29T06:51:02;27.36;110.58
66401;HTU21D;53211;45.040;38.788;2022-07-29T06:53:28;27.43;109.40
66401;HTU21D;53211;45.040;38.788;2022-07-29T06:55:54;27.50;109.88
66401;HTU21D;53211;45.040;38.788;2022-07-29T06:58:20;27.55;109.77
66401;HTU21D;53211;45.040;38.788;2022-07-29T07:00:54;27.64;109.36
66401;HTU21D;53211;45.040;38.788;2022-07-29T07:03:20;27.69;109.25
66401;HTU21D;53211;45.040;38.788;2022-07-29T07:05:46;27.74;109.18
66401;HTU21D;53211;45.040;38.788;2022-07-29T07:08:12;27.78;109.09
66401;HTU21D;53211;45.040;38.788;2022-07-29T07:10:38;27.83;108.92
66401;HTU21D;53211;45.040;38.788;2022-07-29T07:13:04;27.91;108.82
66401;HTU21D;53211;45.040;38.788;2022-07-29T07:15:30;27.96;108.63
66401;HTU21D;53211;45.040;38.788;2022-07-29T07:17:56;28.02;108.60
66401;HTU21D;53211;45.040;38.788;2022-07-29T07:20:23;28.06;108.46
66401;HTU21D;53211;45.040;38.788;2022-07-29T07:22:49;28.12;108.30
66401;HTU21D;53211;45.040;38.788;2022-07-29T07:25:14;28.17;108.14
66401;HTU21D;53211;45.040;38.788;2022-07-29T07:27:40;28.24;103.19
66401;HTU21D;53211;45.040;38.788;2022-07-29T07:30:06;28.31;107.17
66401;HTU21D;53211;45.040;38.788;2022-07-29T07:32:33;28.35;101.01
66401;HTU21D;53211;45.040;38.788;2022-07-29T07:34:59;28.41;106.17
66401;HTU21D;53211;45.040;38.788;2022-07-29T07:37:25;28.47;106.53
66401;HTU21D;53211;45.040;38.788;2022-07-29T07:39:51;28.53;106.52
66401;HTU21D;53211;45.040;38.788;2022-07-29T07:42:17;28.57;106.52
66401;HTU21D;53211;45.040;38.788;2022-07-29T07:44:43;28.65;106.40
66401;HTU21D;53211;45.040;38.788;2022-07-29T07:47:14;28.73;106.27
66401;HTU21D;53211;45.040;38.788;2022-07-29T07:49:40;28.76;104.64
66401;HTU21D;53211;45.040;38.788;2022-07-29T07:52:05;28.84;105.52
66401;HTU21D;53211;45.040;38.788;2022-07-29T07:54:31;28.90;105.28
66401;HTU21D;53211;45.040;38.788;2022-07-29T07:56:57;28.99;105.15
66401;HTU21D;53211;45.040;38.788;2022-07-29T07:59:23;29.05;105.31
66401;HTU21D;53211;45.040;38.788;2022-07-29T08:01:49;29.12;105.11
66401;HTU21D;53211;45.040;38.788;2022-07-29T08:04:15;29.19;105.07
66401;HTU21D;53211;45.040;38.788;2022-07-29T08:06:41;29.26;105.05
66401;HTU21D;53211;45.040;38.788;2022-07-29T08:09:07;29.34;104.95
66401;HTU21D;53211;45.040;38.788;2022-07-29T08:11:33;29.41;102.55
66401;HTU21D;53211;45.040;38.788;2022-07-29T08:13:59;29.47;103.56
66401;HTU21D;53211;45.040;38.788;2022-07-29T08:16:27;29.58;103.46
66401;HTU21D;53211;45.040;38.788;2022-07-29T08:18:52;29.64;103.18
66401;HTU21D;53211;45.040;38.788;2022-07-29T08:21:22;29.71;103.32
66401;HTU21D;53211;45.040;38.788;2022-07-29T08:23:48;29.77;103.34
66401;HTU21D;53211;45.040;38.788;2022-07-29T08:26:16;29.82;103.22
66401;HTU21D;53211;45.040;38.788;2022-07-29T08:28:42;29.92;103.12
66401;HTU21D;53211;45.040;38.788;2022-07-29T08:31:14;30.01;102.84
66401;HTU21D;53211;45.040;38.788;2022-07-29T08:33:40;30.08;102.63
66401;HTU21D;53211;45.040;38.788;2022-07-29T08:36:06;30.19;102.47
66401;HTU21D;53211;45.040;38.788;2022-07-29T08:38:32;30.28;102.22
66401;HTU21D;53211;45.040;38.788;2022-07-29T08:40:58;30.36;102.15
66401;HTU21D;53211;45.040;38.788;2022-07-29T08:43:27;30.45;101.95
66401;HTU21D;53211;45.040;38.788;2022-07-29T08:45:53;30.53;101.76
66401;HTU21D;53211;45.040;38.788;2022-07-29T08:48:20;30.60;101.58
66401;HTU21D;53211;45.040;38.788;2022-07-29T08:50:46;30.67;100.47
66401;HTU21D;53211;45.040;38.788;2022-07-29T08:53:13;30.72;101.15
66401;HTU21D;53211;45.040;38.788;2022-07-29T08:55:43;30.79;100.98
66401;HTU21D;53211;45.040;38.788;2022-07-29T08:58:09;30.85;99.96
66401;HTU21D;53211;45.040;38.788;2022-07-29T09:00:41;30.93;99.19
66401;HTU21D;53211;45.040;38.788;2022-07-29T09:03:08;31.05;100.08
66401;HTU21D;53211;45.040;38.788;2022-07-29T09:05:34;31.12;99.93
66401;HTU21D;53211;45.040;38.788;2022-07-29T09:08:00;31.20;99.66
66401;HTU21D;53211;45.040;38.788;2022-07-29T09:10:26;31.27;99.03
66401;HTU21D;53211;45.040;38.788;2022-07-29T09:12:54;31.31;98.56
66401;HTU21D;53211;45.040;38.788;2022-07-29T09:15:20;31.33;98.68
66401;HTU21D;53211;45.040;38.788;2022-07-29T09:17:47;31.39;98.55
66401;HTU21D;53211;45.040;38.788;2022-07-29T09:20:16;31.43;98.23
66401;HTU21D;53211;45.040;38.788;2022-07-29T09:22:42;31.51;98.12
66401;HTU21D;53211;45.040;38.788;2022-07-29T09:25:08;31.55;97.71
66401;HTU21D;53211;45.040;38.788;2022-07-29T09:27:34;31.60;97.65
66401;HTU21D;53211;45.040;38.788;2022-07-29T09:32:26;31.64;97.51
66401;HTU21D;53211;45.040;38.788;2022-07-29T09:35:13;31.64;97.44
66401;HTU21D;53211;45.040;38.788;2022-07-29T09:37:38;31.64;96.08
66401;HTU21D;53211;45.040;38.788;2022-07-29T09:40:20;31.65;96.41
66401;HTU21D;53211;45.040;38.788;2022-07-29T09:42:46;31.65;95.92
66401;HTU21D;53211;45.040;38.788;2022-07-29T09:45:13;31.66;96.45
66401;HTU21D;53211;45.040;38.788;2022-07-29T09:47:51;31.68;96.49
66401;HTU21D;53211;45.040;38.788;2022-07-29T09:50:16;31.71;96.20
66401;HTU21D;53211;45.040;38.788;2022-07-29T09:52:45;31.75;96.04
66401;HTU21D;53211;45.040;38.788;2022-07-29T09:55:11;31.82;96.21
66401;HTU21D;53211;45.040;38.788;2022-07-29T09:57:37;31.89;95.96
66401;HTU21D;53211;45.040;38.788;2022-07-29T10:03:07;32.12;94.89
66401;HTU21D;53211;45.040;38.788;2022-07-29T10:05:33;32.26;94.75
66401;HTU21D;53211;45.040;38.788;2022-07-29T10:07:59;32.43;93.41
66401;HTU21D;53211;45.040;38.788;2022-07-29T10:10:29;32.57;93.43
66401;HTU21D;53211;45.040;38.788;2022-07-29T10:12:55;32.69;92.87
66401;HTU21D;53211;45.040;38.788;2022-07-29T10:15:23;32.83;93.67
66401;HTU21D;53211;45.040;38.788;2022-07-29T10:17:49;33.00;92.84
66401;HTU21D;53211;45.040;38.788;2022-07-29T10:20:16;33.18;93.47
66401;HTU21D;53211;45.040;38.788;2022-07-29T10:22:42;33.34;92.95
66401;HTU21D;53211;45.040;38.788;2022-07-29T10:25:09;33.52;92.80
66401;HTU21D;53211;45.040;38.788;2022-07-29T10:27:35;33.72;92.71
66401;HTU21D;53211;45.040;38.788;2022-07-29T10:30:03;33.96;92.27
66401;HTU21D;53211;45.040;38.788;2022-07-29T10:32:33;34.18;91.99
66401;HTU21D;53211;45.040;38.788;2022-07-29T10:43:31;35.16;88.06
66401;HTU21D;53211;45.040;38.788;2022-07-29T10:46:01;35.22;88.11
66401;HTU21D;53211;45.040;38.788;2022-07-29T10:48:27;35.23;87.86
66401;HTU21D;53211;45.040;38.788;2022-07-29T10:51:01;35.29;88.09
66401;HTU21D;53211;45.040;38.788;2022-07-29T10:53:47;35.50;87.86
66401;HTU21D;53211;45.040;38.788;2022-07-29T10:56:34;35.74;87.67
66401;HTU21D;53211;45.040;38.788;2022-07-29T11:01:45;36.38;86.68
66401;HTU21D;53211;45.040;38.788;2022-07-29T11:04:11;36.68;86.38
66401;HTU21D;53211;45.040;38.788;2022-07-29T11:09:22;37.23;84.42
66401;HTU21D;53211;45.040;38.788;2022-07-29T11:11:48;37.46;83.94
66401;HTU21D;53211;45.040;38.788;2022-07-29T11:14:14;37.75;83.63
66401;HTU21D;53211;45.040;38.788;2022-07-29T11:16:59;38.19;82.08
66401;HTU21D;53211;45.040;38.788;2022-07-29T11:19:25;38.54;80.21
66401;HTU21D;53211;45.040;38.788;2022-07-29T11:21:51;38.90;75.95
66401;HTU21D;53211;45.040;38.788;2022-07-29T11:24:23;38.76;75.37
66401;HTU21D;53211;45.040;38.788;2022-07-29T11:29:40;40.55;71.71
66401;HTU21D;53211;45.040;38.788;2022-07-29T11:32:13;41.79;68.20
66401;HTU21D;53211;45.040;38.788;2022-07-29T11:34:45;43.08;63.21
66401;HTU21D;53211;45.040;38.788;2022-07-29T11:39:45;45.16;57.90
66401;HTU21D;53211;45.040;38.788;2022-07-29T11:45:08;47.07;52.55
66401;HTU21D;53211;45.040;38.788;2022-07-29T11:47:35;47.75;50.12
66401;HTU21D;53211;45.040;38.788;2022-07-29T11:50:02;48.30;48.64
66401;HTU21D;53211;45.040;38.788;2022-07-29T11:52:36;48.74;47.80
66401;HTU21D;53211;45.040;38.788;2022-07-29T11:55:09;49.16;45.81
66401;HTU21D;53211;45.040;38.788;2022-07-29T11:57:35;49.57;44.80
66401;HTU21D;53211;45.040;38.788;2022-07-29T12:00:02;49.84;44.06
66401;HTU21D;53211;45.040;38.788;2022-07-29T12:02:42;50.16;43.29
66401;HTU21D;53211;45.040;38.788;2022-07-29T12:05:08;50.48;42.05
66401;HTU21D;53211;45.040;38.788;2022-07-29T12:07:38;50.65;40.62
66401;HTU21D;53211;45.040;38.788;2022-07-29T12:10:04;50.75;40.01
66401;HTU21D;53211;45.040;38.788;2022-07-29T12:12:30;50.50;38.67
66401;HTU21D;53211;45.040;38.788;2022-07-29T12:14:56;50.07;39.25
66401;HTU21D;53211;45.040;38.788;2022-07-29T12:17:25;49.84;39.61
66401;HTU21D;53211;45.040;38.788;2022-07-29T12:19:55;50.00;39.14
66401;HTU21D;53211;45.040;38.788;2022-07-29T12:22:40;50.36;38.84
66401;HTU21D;53211;45.040;38.788;2022-07-29T12:25:07;50.67;37.84
66401;HTU21D;53211;45.040;38.788;2022-07-29T12:27:34;51.08;37.28
66401;HTU21D;53211;45.040;38.788;2022-07-29T12:30:18;51.42;36.40
66401;HTU21D;53211;45.040;38.788;2022-07-29T12:32:45;51.69;34.71
66401;HTU21D;53211;45.040;38.788;2022-07-29T12:35:13;51.78;35.15
66401;HTU21D;53211;45.040;38.788;2022-07-29T12:37:40;51.91;35.26
66401;HTU21D;53211;45.040;38.788;2022-07-29T12:40:07;51.90;34.87
66401;HTU21D;53211;45.040;38.788;2022-07-29T12:42:34;52.08;34.44
66401;HTU21D;53211;45.040;38.788;2022-07-29T12:45:00;51.82;34.47
66401;HTU21D;53211;45.040;38.788;2022-07-29T12:47:27;51.53;34.60
66401;HTU21D;53211;45.040;38.788;2022-07-29T12:50:12;51.40;34.63
66401;HTU21D;53211;45.040;38.788;2022-07-29T12:52:39;51.40;34.49
66401;HTU21D;53211;45.040;38.788;2022-07-29T12:55:05;51.71;33.56
66401;HTU21D;53211;45.040;38.788;2022-07-29T12:57:32;52.05;33.02
66401;HTU21D;53211;45.040;38.788;2022-07-29T13:00:09;52.20;32.89
66401;HTU21D;53211;45.040;38.788;2022-07-29T13:02:39;51.93;32.94
66401;HTU21D;53211;45.040;38.788;2022-07-29T13:05:06;51.27;33.12
66401;HTU21D;53211;45.040;38.788;2022-07-29T13:07:34;50.01;33.61
66401;HTU21D;53211;45.040;38.788;2022-07-29T13:10:17;48.46;34.87
66401;HTU21D;53211;45.040;38.788;2022-07-29T13:13:02;47.02;36.33
66401;HTU21D;53211;45.040;38.788;2022-07-29T13:15:28;45.77;37.55
66401;HTU21D;53211;45.040;38.788;2022-07-29T13:17:54;44.77;38.86
66401;HTU21D;53211;45.040;38.788;2022-07-29T13:20:23;44.28;39.90
66401;HTU21D;53211;45.040;38.788;2022-07-29T13:22:49;44.69;40.00
66401;HTU21D;53211;45.040;38.788;2022-07-29T13:25:22;45.49;39.34
66401;HTU21D;53211;45.040;38.788;2022-07-29T13:27:48;46.46;38.62
66401;HTU21D;53211;45.040;38.788;2022-07-29T13:30:15;47.39;37.67
66401;HTU21D;53211;45.040;38.788;2022-07-29T13:32:41;48.24;36.08
66401;HTU21D;53211;45.040;38.788;2022-07-29T13:35:07;48.77;35.36
66401;HTU21D;53211;45.040;38.788;2022-07-29T13:37:34;49.13;35.53
66401;HTU21D;53211;45.040;38.788;2022-07-29T13:40:03;49.59;35.36
66401;HTU21D;53211;45.040;38.788;2022-07-29T13:42:30;50.01;34.96
66401;HTU21D;53211;45.040;38.788;2022-07-29T13:44:56;50.41;34.53
66401;HTU21D;53211;45.040;38.788;2022-07-29T13:47:23;50.76;34.12
66401;HTU21D;53211;45.040;38.788;2022-07-29T13:49:49;50.93;33.72
66401;HTU21D;53211;45.040;38.788;2022-07-29T13:52:15;50.79;33.57
66401;HTU21D;53211;45.040;38.788;2022-07-29T13:54:41;50.49;32.06
66401;HTU21D;53211;45.040;38.788;2022-07-29T13:57:07;50.34;32.63
66401;HTU21D;53211;45.040;38.788;2022-07-29T13:59:33;50.32;32.86
66401;HTU21D;53211;45.040;38.788;2022-07-29T14:01:59;50.38;32.73
66401;HTU21D;53211;45.040;38.788;2022-07-29T14:04:24;50.53;32.80
66401;HTU21D;53211;45.040;38.788;2022-07-29T14:06:51;50.61;32.67
66401;HTU21D;53211;45.040;38.788;2022-07-29T14:09:17;50.64;32.73
66401;HTU21D;53211;45.040;38.788;2022-07-29T14:11:43;50.75;32.72
66401;HTU21D;53211;45.040;38.788;2022-07-29T14:14:09;50.83;32.67
66401;HTU21D;53211;45.040;38.788;2022-07-29T14:16:36;50.94;32.56
66401;HTU21D;53211;45.040;38.788;2022-07-29T14:19:02;50.94;32.48
66401;HTU21D;53211;45.040;38.788;2022-07-29T14:21:28;50.88;32.25
66401;HTU21D;53211;45.040;38.788;2022-07-29T14:23:54;50.67;32.16
66401;HTU21D;53211;45.040;38.788;2022-07-29T14:26:20;50.34;31.77
66401;HTU21D;53211;45.040;38.788;2022-07-29T14:28:46;49.72;31.58
66401;HTU21D;53211;45.040;38.788;2022-07-29T14:31:12;48.74;31.97
66401;HTU21D;53211;45.040;38.788;2022-07-29T14:33:38;47.52;32.88
66401;HTU21D;53211;45.040;38.788;2022-07-29T14:36:04;46.29;33.96
66401;HTU21D;53211;45.040;38.788;2022-07-29T14:38:30;45.12;35.09
66401;HTU21D;53211;45.040;38.788;2022-07-29T14:40:55;43.98;36.23
66401;HTU21D;53211;45.040;38.788;2022-07-29T14:43:21;42.94;37.40
66401;HTU21D;53211;45.040;38.788;2022-07-29T14:45:47;42.01;38.55
66401;HTU21D;53211;45.040;38.788;2022-07-29T14:48:13;41.16;39.62
66401;HTU21D;53211;45.040;38.788;2022-07-29T14:50:39;40.42;40.61
66401;HTU21D;53211;45.040;38.788;2022-07-29T14:53:05;39.76;41.54
66401;HTU21D;53211;45.040;38.788;2022-07-29T14:55:30;39.17;42.39
66401;HTU21D;53211;45.040;38.788;2022-07-29T14:57:56;38.60;43.16
66401;HTU21D;53211;45.040;38.788;2022-07-29T15:00:23;38.12;43.92
66401;HTU21D;53211;45.040;38.788;2022-07-29T15:02:48;37.67;44.61
66401;HTU21D;53211;45.040;38.788;2022-07-29T15:05:15;37.26;45.31
66401;HTU21D;53211;45.040;38.788;2022-07-29T15:07:40;36.87;45.86
66401;HTU21D;53211;45.040;38.788;2022-07-29T15:10:06;36.48;46.53
66401;HTU21D;53211;45.040;38.788;2022-07-29T15:12:32;36.13;47.12
66401;HTU21D;53211;45.040;38.788;2022-07-29T15:14:58;35.79;47.70
66401;HTU21D;53211;45.040;38.788;2022-07-29T15:17:24;35.48;48.28
66401;HTU21D;53211;45.040;38.788;2022-07-29T15:19:50;35.16;48.86
66401;HTU21D;53211;45.040;38.788;2022-07-29T15:22:16;34.88;49.43
66401;HTU21D;53211;45.040;38.788;2022-07-29T15:24:42;34.60;49.96
66401;HTU21D;53211;45.040;38.788;2022-07-29T15:27:08;34.33;50.45
66401;HTU21D;53211;45.040;38.788;2022-07-29T15:29:40;34.06;51.01
66401;HTU21D;53211;45.040;38.788;2022-07-29T15:32:06;33.83;51.50